Fish Lake Valley, Nevada Weather observations

Data are for 10 minute period ending at time listed.
 Day   Time    Ave.   Ave.  Ave.  Vector   Max.   Stn.    Total    Solar   Ave.  
  of    of     Air    Rel.  Wind   Wind    Wind   Baro.  Precip.   Rad.    Soil  
Year   Day     Temp.  Hum.  Speed  Dir.    Gust   Pres.                    Temp. 
2015   (PST)    F      %     mph   deg.    mph     mb.     in.     W/m2     F    
--------------------------------------------------------------------------------- 
 184    5:50   67.7    83    3.9   139      5.8   855.3    0.00     195    84.2  
 184    6:00   67.1    85    4.6   125      6.0   855.4    0.00     182    84.1  
 184    6:10   66.7    85    4.5   142      5.9   855.3    0.00     319    84.0  
 184    6:20   68.6    81    4.1   139      5.3   855.3    0.00     512    83.9  
 184    6:30   70.1    78    2.0   115      3.8   855.4    0.00     575    83.8  
 184    6:40   72.9    71    1.2    97      3.7   855.4    0.00     665    83.7  
 184    6:50   72.8    70    2.1   114      3.6   855.4    0.00     730    83.7  
 184    7:00   72.7    68    3.2   114      4.4   855.4    0.00     736    83.6  
 184    7:10   73.5    65    3.2   118      4.6   855.4    0.00     833    83.5  
 184    7:20   75.4    58    2.3   156      3.1   855.4    0.00     896    83.4  
 184    7:30   77.2    56    1.4   120      2.7   855.4    0.00     972    83.3  
 184    7:40   77.6    54    2.3   142      3.8   855.4    0.00    1027    83.2  
 184    7:50   78.4    50    1.5   142      4.1   855.5    0.00    1082    83.1  
 184    8:00   79.9    45    1.2    41      3.5   855.5    0.00    1145    83.0  
 184    8:10   80.6    43    1.1    70      2.6   855.5    0.00    1204    83.0  
 184    8:20   80.8    41    1.2    39      3.0   855.5    0.00    1206    82.9  
 184    8:30   80.7    43    1.3   355      2.7   855.4    0.00    1135    82.8  
 184    8:40   81.6    41    1.8    29      3.5   855.3    0.00    1395    82.7  
 184    8:50   81.9    39    2.1    25      3.8   855.2    0.00    1436    82.7  
 184    9:00   83.3    38    1.9     1      4.3   855.2    0.00    1441    82.6  
 184    9:10   83.1    37    1.5     3      3.6   855.1    0.00    1539    82.5  
 184    9:20   84.2    35    1.8    34      4.1   855.0    0.00    1569    82.5  
 184    9:30   85.0    36    1.5     3      4.5   855.0    0.00    1371    82.4  
 184    9:40   83.6    38    3.0   340      5.0   854.9    0.00    1578    82.4  

Return to Fish Lake Valley, Nevada graphs page.


Western Regional Climate Center,wrcc@dri.edu